createdAt,value
2019-03-25T00:01:56.656Z,130.23
2019-03-25T00:04:25.502Z,130.53
2019-03-25T00:06:54.349Z,136.73
2019-03-25T00:09:23.231Z,128.57
2019-03-25T00:11:52.066Z,138.90
2019-03-25T00:14:20.925Z,136.03
2019-03-25T00:16:49.807Z,124.80
2019-03-25T00:19:18.669Z,112.40
2019-03-25T00:21:47.504Z,102.97
2019-03-25T00:24:16.425Z,110.43
2019-03-25T00:26:45.273Z,115.53
2019-03-25T00:29:14.139Z,179.27
2019-03-25T00:31:50.057Z,202.03
2019-03-25T00:34:20.651Z,237.50
2019-03-25T00:36:49.482Z,132.60
2019-03-25T00:39:19.884Z,108.03
2019-03-25T00:41:48.746Z,104.20
2019-03-25T00:44:21.807Z,112.70
2019-03-25T00:46:54.871Z,106.93
2019-03-25T00:49:32.600Z,112.00
2019-03-25T00:52:01.495Z,109.10
2019-03-25T00:54:31.937Z,116.93
2019-03-25T00:57:05.778Z,116.87
2019-03-25T00:59:34.724Z,113.67
2019-03-25T01:02:12.797Z,115.23
2019-03-25T01:04:41.696Z,106.77
2019-03-25T01:07:10.549Z,100.90
2019-03-25T01:09:39.384Z,105.73
2019-03-25T01:12:08.306Z,95.23
2019-03-25T01:14:37.134Z,109.53
2019-03-25T01:17:06.001Z,105.43
2019-03-25T01:19:34.906Z,104.87
2019-03-25T01:22:03.769Z,104.07
2019-03-25T01:24:32.612Z,106.67
2019-03-25T01:27:01.812Z,115.43
2019-03-25T01:29:30.668Z,111.47
2019-03-25T01:31:59.519Z,109.47
2019-03-25T01:34:28.429Z,123.63
2019-03-25T01:36:57.268Z,157.43
2019-03-25T01:39:26.125Z,204.40
2019-03-25T01:41:55.055Z,205.57
2019-03-25T01:44:23.889Z,182.73
2019-03-25T01:46:52.727Z,128.67
2019-03-25T01:49:21.580Z,107.27
2019-03-25T01:51:50.381Z,108.03
2019-03-25T01:54:19.228Z,107.57
2019-03-25T01:56:48.117Z,112.93
2019-03-25T01:59:16.962Z,112.13
2019-03-25T02:01:45.794Z,115.23
2019-03-25T02:04:14.710Z,103.13
2019-03-25T02:06:43.565Z,99.87
2019-03-25T02:09:12.416Z,103.93
2019-03-25T02:11:41.325Z,101.87
2019-03-25T02:14:10.167Z,103.07
2019-03-25T02:16:39.025Z,104.83
2019-03-25T02:19:07.932Z,111.67
2019-03-25T02:21:36.788Z,104.50
2019-03-25T02:24:05.637Z,99.17
2019-03-25T02:26:34.590Z,108.83
2019-03-25T02:29:03.427Z,112.40
2019-03-25T02:31:32.303Z,114.47
2019-03-25T02:34:01.204Z,108.40
2019-03-25T02:36:30.063Z,112.30
2019-03-25T02:38:58.926Z,121.87
2019-03-25T02:41:27.803Z,114.20
2019-03-25T02:43:56.648Z,108.57
2019-03-25T02:46:25.501Z,99.47
2019-03-25T02:48:54.423Z,99.13
2019-03-25T02:51:23.291Z,96.47
2019-03-25T02:53:52.158Z,107.77
2019-03-25T02:56:21.047Z,106.53
2019-03-25T02:58:49.900Z,110.80
2019-03-25T03:01:18.752Z,116.17
2019-03-25T03:03:47.666Z,110.53
2019-03-25T03:06:16.533Z,114.07
2019-03-25T03:08:47.499Z,117.40
2019-03-25T03:11:15.965Z,125.13
2019-03-25T03:13:44.825Z,123.87
2019-03-25T03:16:13.664Z,136.20
2019-03-25T03:18:42.569Z,132.10
2019-03-25T03:21:11.407Z,129.93
2019-03-25T03:23:40.265Z,137.60
2019-03-25T03:26:09.158Z,129.07
2019-03-25T03:28:38.010Z,122.40
2019-03-25T03:31:06.885Z,126.27
2019-03-25T03:33:35.767Z,129.77
2019-03-25T03:36:04.645Z,138.27
2019-03-25T03:38:33.473Z,128.23
2019-03-25T03:41:02.562Z,145.70
2019-03-25T03:43:31.432Z,136.63
2019-03-25T03:46:00.273Z,157.23
2019-03-25T03:48:29.186Z,165.63
2019-03-25T03:50:58.432Z,161.57
2019-03-25T03:53:27.677Z,142.10
2019-03-25T03:56:11.552Z,140.30
2019-03-25T03:58:28.552Z,142.57
2019-03-25T04:00:57.406Z,151.30
2019-03-25T04:03:26.311Z,146.50
2019-03-25T04:05:55.348Z,147.70
2019-03-25T04:08:24.206Z,144.00
2019-03-25T04:10:53.091Z,153.17
2019-03-25T04:13:21.979Z,145.20
2019-03-25T04:15:50.818Z,137.23
2019-03-25T04:18:19.757Z,132.20
2019-03-25T04:20:48.603Z,115.00
2019-03-25T04:23:17.451Z,122.23
2019-03-25T04:25:46.351Z,124.67
2019-03-25T04:28:15.206Z,133.47
2019-03-25T04:30:44.053Z,137.13
2019-03-25T04:33:12.946Z,153.53
2019-03-25T04:35:42.680Z,150.10
2019-03-25T04:38:11.579Z,156.60
2019-03-25T04:40:40.491Z,164.47
2019-03-25T04:43:09.344Z,170.27
2019-03-25T04:45:38.205Z,172.43
2019-03-25T04:48:07.138Z,165.17
2019-03-25T04:50:35.997Z,158.33
2019-03-25T04:53:04.841Z,171.83
2019-03-25T04:55:33.755Z,176.53
2019-03-25T04:58:02.611Z,179.93
2019-03-25T05:00:33.740Z,176.77
2019-03-25T05:03:02.668Z,184.00
2019-03-25T05:05:31.520Z,179.30
2019-03-25T05:08:00.375Z,186.50
2019-03-25T05:10:29.285Z,183.20
2019-03-25T05:12:58.140Z,208.50
2019-03-25T05:15:27.001Z,201.00
2019-03-25T05:17:55.869Z,212.37
2019-03-25T05:20:24.758Z,206.57
2019-03-25T05:22:53.646Z,204.07
2019-03-25T05:25:22.510Z,204.13
2019-03-25T05:27:51.349Z,191.27
2019-03-25T05:30:22.865Z,189.93
2019-03-25T05:32:50.774Z,194.47
2019-03-25T05:35:19.623Z,193.73
2019-03-25T05:37:48.478Z,207.63
2019-03-25T05:40:18.334Z,230.03
2019-03-25T05:42:47.176Z,217.90
2019-03-25T05:45:16.048Z,242.57
2019-03-25T05:47:44.954Z,225.23
2019-03-25T05:50:13.814Z,288.37
2019-03-25T05:52:42.655Z,225.43
2019-03-25T05:55:11.538Z,185.17
2019-03-25T05:57:40.401Z,197.73
2019-03-25T06:00:10.579Z,180.13
2019-03-25T06:02:39.479Z,171.77
2019-03-25T06:05:08.822Z,193.83
2019-03-25T06:07:37.681Z,145.80
2019-03-25T06:10:07.601Z,166.13
2019-03-25T06:12:36.440Z,170.07
2019-03-25T06:15:06.786Z,187.80
2019-03-25T06:17:35.681Z,186.23
2019-03-25T06:20:06.783Z,208.27
2019-03-25T06:22:35.675Z,239.30
2019-03-25T06:25:07.007Z,248.23
2019-03-25T06:27:35.862Z,264.47
2019-03-25T06:30:06.987Z,230.37
2019-03-25T06:32:36.065Z,201.37
2019-03-25T06:35:08.887Z,202.70
2019-03-25T06:37:37.699Z,260.07
2019-03-25T06:40:08.271Z,311.00
2019-03-25T06:42:37.174Z,243.23
2019-03-25T06:45:08.099Z,205.77
2019-03-25T06:47:37.004Z,201.97
2019-03-25T06:50:09.645Z,192.47
2019-03-25T06:52:38.469Z,222.53
2019-03-25T06:55:09.316Z,206.37
2019-03-25T06:57:38.749Z,197.03
2019-03-25T07:00:10.101Z,194.87
2019-03-25T07:02:39.002Z,190.10
2019-03-25T07:05:08.566Z,186.10
2019-03-25T07:07:37.458Z,170.57
2019-03-25T07:10:06.959Z,170.30
2019-03-25T07:12:36.893Z,162.00
2019-03-25T07:15:08.930Z,150.33
2019-03-25T07:17:37.855Z,215.50
2019-03-25T07:20:11.165Z,165.63
2019-03-25T07:22:40.071Z,104.13
2019-03-25T07:25:09.199Z,112.33
2019-03-25T07:27:38.034Z,87.78
2019-03-25T07:30:08.397Z,77.27
2019-03-25T07:32:37.653Z,90.17
2019-03-25T07:35:07.697Z,66.85
2019-03-25T07:37:36.555Z,69.80
2019-03-25T07:40:08.550Z,97.37
2019-03-25T07:42:38.232Z,79.12
2019-03-25T07:45:08.310Z,101.20
2019-03-25T07:47:37.462Z,85.77
2019-03-25T07:50:07.999Z,99.07
2019-03-25T07:52:36.858Z,69.95
2019-03-25T07:55:06.877Z,84.47
2019-03-25T07:57:35.752Z,73.22
2019-03-25T08:00:13.558Z,94.77
2019-03-25T08:02:38.089Z,83.47
2019-03-25T08:05:07.371Z,107.67
2019-03-25T08:07:36.239Z,108.47
2019-03-25T08:10:06.558Z,77.30
2019-03-25T08:12:35.701Z,95.75
2019-03-25T08:15:06.585Z,92.37
2019-03-25T08:17:35.552Z,99.87
2019-03-25T08:20:08.509Z,75.20
2019-03-25T08:22:37.372Z,92.40
2019-03-25T08:25:07.491Z,74.05
2019-03-25T08:27:36.352Z,63.13
2019-03-25T08:30:07.770Z,65.12
2019-03-25T08:32:36.687Z,42.53
2019-03-25T08:35:06.833Z,54.35
2019-03-25T08:37:35.672Z,46.23
2019-03-25T08:40:23.869Z,60.05
2019-03-25T08:42:52.718Z,41.63
2019-03-25T08:45:21.578Z,36.55
2019-03-25T08:47:50.495Z,54.40
2019-03-25T08:50:19.351Z,33.23
2019-03-25T08:52:48.182Z,68.67
2019-03-25T08:55:17.098Z,43.17
2019-03-25T08:57:45.948Z,42.45
2019-03-25T09:00:15.178Z,40.88
2019-03-25T09:02:44.181Z,49.23
2019-03-25T09:05:13.117Z,36.38
2019-03-25T09:07:41.988Z,40.52
2019-03-25T09:10:11.489Z,39.27
2019-03-25T09:12:40.357Z,47.17
2019-03-25T09:15:10.496Z,32.98
2019-03-25T09:17:39.387Z,36.00
2019-03-25T09:20:10.443Z,35.43
2019-03-25T09:22:39.487Z,30.85
2019-03-25T09:25:08.907Z,29.07
2019-03-25T09:27:37.769Z,27.10
2019-03-25T09:30:09.128Z,34.78
2019-03-25T09:32:38.004Z,28.30
2019-03-25T09:35:09.053Z,28.32
2019-03-25T09:37:38.995Z,25.00
2019-03-25T09:40:10.098Z,26.35
2019-03-25T09:42:39.047Z,28.67
2019-03-25T09:45:09.412Z,23.95
2019-03-25T09:47:38.302Z,23.62
2019-03-25T09:50:08.179Z,20.00
2019-03-25T09:52:38.835Z,25.10
2019-03-25T09:55:08.473Z,26.57
2019-03-25T09:57:37.344Z,20.68
2019-03-25T10:00:10.925Z,24.37
2019-03-25T10:02:39.862Z,18.37
2019-03-25T10:05:08.999Z,19.82
2019-03-25T10:07:37.853Z,21.80
2019-03-25T10:10:09.954Z,21.20
2019-03-25T10:12:38.824Z,16.80
2019-03-25T10:15:09.195Z,19.13
2019-03-25T10:17:38.070Z,18.97
2019-03-25T10:20:08.304Z,21.27
2019-03-25T10:22:37.174Z,24.90
2019-03-25T10:25:07.610Z,19.60
2019-03-25T10:27:36.441Z,20.53
2019-03-25T10:30:10.106Z,20.70
2019-03-25T10:32:39.108Z,25.57
2019-03-25T10:35:08.481Z,24.90
2019-03-25T10:37:37.332Z,26.57
2019-03-25T10:40:10.954Z,37.07
2019-03-25T10:42:39.804Z,24.90
2019-03-25T10:45:09.857Z,28.33
2019-03-25T10:47:38.758Z,26.63
2019-03-25T10:50:08.194Z,26.37
2019-03-25T10:52:37.054Z,26.37
2019-03-25T10:55:08.098Z,24.90
2019-03-25T10:57:37.071Z,26.63
2019-03-25T11:00:08.195Z,23.10
2019-03-25T11:02:37.106Z,24.50
2019-03-25T11:05:07.758Z,27.50
2019-03-25T11:07:36.642Z,26.30
2019-03-25T11:10:12.957Z,24.40
2019-03-25T11:12:41.800Z,24.77
2019-03-25T11:15:11.153Z,27.07
2019-03-25T11:17:40.058Z,28.60
2019-03-25T11:20:10.427Z,27.00
2019-03-25T11:22:39.271Z,30.93
2019-03-25T11:25:08.979Z,27.87
2019-03-25T11:27:37.834Z,27.93
2019-03-25T11:30:09.382Z,30.73
2019-03-25T11:32:38.280Z,24.90
2019-03-25T11:35:09.304Z,27.90
2019-03-25T11:37:38.152Z,29.40
2019-03-25T11:40:08.757Z,32.90
2019-03-25T11:42:37.599Z,33.00
2019-03-25T11:45:10.737Z,32.40
2019-03-25T11:47:39.659Z,30.17
2019-03-25T11:50:08.804Z,23.87
2019-03-25T11:52:37.679Z,34.00
2019-03-25T11:55:07.444Z,29.50
2019-03-25T11:57:36.278Z,29.93
2019-03-25T12:00:08.126Z,30.83
2019-03-25T12:02:37.034Z,30.27
2019-03-25T12:05:09.681Z,35.47
2019-03-25T12:07:38.523Z,25.80
2019-03-25T12:10:08.139Z,28.20
2019-03-25T12:12:36.977Z,25.97
2019-03-25T12:15:07.809Z,26.93
2019-03-25T12:17:36.721Z,26.80
2019-03-25T12:20:06.955Z,35.17
2019-03-25T12:22:35.803Z,30.90
2019-03-25T12:25:06.727Z,29.07
2019-03-25T12:27:35.574Z,29.47
2019-03-25T12:30:07.094Z,27.17
2019-03-25T12:32:36.028Z,26.80
2019-03-25T12:35:07.144Z,26.77
2019-03-25T12:37:35.985Z,29.67
2019-03-25T12:40:07.850Z,32.77
2019-03-25T12:42:37.200Z,26.70
2019-03-25T12:45:08.830Z,28.43
2019-03-25T12:47:37.720Z,32.57
2019-03-25T12:50:07.882Z,25.43
2019-03-25T12:52:36.744Z,29.50
2019-03-25T12:55:07.150Z,29.07
2019-03-25T12:57:35.993Z,29.27
2019-03-25T13:00:07.205Z,32.17
2019-03-25T13:02:36.092Z,32.47
2019-03-25T13:05:06.331Z,32.20
2019-03-25T13:07:35.191Z,33.67
2019-03-25T13:10:05.039Z,29.23
2019-03-25T13:12:33.914Z,28.80
2019-03-25T13:15:02.766Z,31.33
2019-03-25T13:17:31.678Z,29.53
2019-03-25T13:20:00.525Z,31.83
2019-03-25T13:22:29.369Z,34.33
2019-03-25T13:24:58.274Z,35.33
2019-03-25T13:27:27.116Z,30.63
2019-03-25T13:29:55.964Z,36.00
2019-03-25T13:32:24.881Z,33.47
2019-03-25T13:34:53.709Z,31.00
2019-03-25T13:37:22.560Z,29.93
2019-03-25T13:39:51.490Z,30.77
2019-03-25T13:42:20.349Z,34.07
2019-03-25T13:44:49.180Z,38.23
2019-03-25T13:47:18.066Z,33.80
2019-03-25T13:49:47.938Z,32.03
2019-03-25T13:52:16.776Z,32.53
2019-03-25T13:54:45.668Z,31.27
2019-03-25T13:57:14.514Z,32.43
2019-03-25T13:59:43.368Z,33.30
2019-03-25T14:02:12.276Z,31.33
2019-03-25T14:04:41.110Z,28.20
2019-03-25T14:07:09.953Z,26.07
2019-03-25T14:09:38.841Z,31.97
2019-03-25T14:12:07.678Z,31.43
2019-03-25T14:14:36.512Z,31.27
2019-03-25T14:17:05.403Z,33.53
2019-03-25T14:19:34.261Z,35.07
2019-03-25T14:22:03.085Z,33.97
2019-03-25T14:24:31.995Z,30.23
2019-03-25T14:27:00.844Z,30.63
2019-03-25T14:29:29.686Z,29.90
2019-03-25T14:31:58.580Z,34.40
2019-03-25T14:34:27.438Z,29.43
2019-03-25T14:36:56.270Z,31.20
2019-03-25T14:39:25.169Z,36.70
2019-03-25T14:41:54.030Z,30.03
2019-03-25T14:44:22.889Z,30.07
2019-03-25T14:46:51.951Z,33.13
2019-03-25T14:49:20.808Z,30.30
2019-03-25T14:51:50.754Z,30.60
2019-03-25T14:54:19.595Z,30.23
2019-03-25T14:56:48.448Z,40.37
2019-03-25T14:59:17.609Z,33.43
2019-03-25T15:01:47.936Z,31.20
2019-03-25T15:04:16.775Z,28.17
2019-03-25T15:06:45.708Z,28.67
2019-03-25T15:09:14.531Z,29.97
2019-03-25T15:11:43.365Z,32.37
2019-03-25T15:14:12.244Z,28.67
2019-03-25T15:16:41.087Z,28.60
2019-03-25T15:19:09.938Z,34.40
2019-03-25T15:21:38.848Z,31.53
2019-03-25T15:24:07.690Z,33.07
2019-03-25T15:26:36.534Z,33.63
2019-03-25T15:29:05.525Z,34.90
2019-03-25T15:31:34.373Z,30.00
2019-03-25T15:34:03.244Z,32.77
2019-03-25T15:36:32.534Z,39.87
2019-03-25T15:39:01.404Z,27.17
2019-03-25T15:41:30.253Z,31.77
2019-03-25T15:43:59.163Z,34.23
2019-03-25T15:46:27.990Z,32.93
2019-03-25T15:48:56.844Z,32.50
2019-03-25T15:51:25.766Z,28.90
2019-03-25T15:53:54.800Z,29.43
2019-03-25T15:56:23.713Z,32.87
2019-03-25T15:58:52.706Z,26.33
2019-03-25T16:01:21.701Z,26.60
2019-03-25T16:03:50.529Z,30.50
2019-03-25T16:06:19.429Z,33.17
2019-03-25T16:08:48.266Z,35.60
2019-03-25T16:11:17.114Z,30.67
2019-03-25T16:13:46.022Z,30.43
2019-03-25T16:16:14.861Z,29.67
2019-03-25T16:18:43.834Z,29.20
2019-03-25T16:21:12.870Z,31.57
2019-03-25T16:23:41.889Z,34.60
2019-03-25T16:26:10.783Z,27.87
2019-03-25T16:28:39.802Z,31.80
2019-03-25T16:31:08.794Z,35.30
2019-03-25T16:33:37.757Z,31.43
2019-03-25T16:36:06.965Z,27.20
2019-03-25T16:38:35.873Z,32.60
2019-03-25T16:41:04.698Z,30.40
2019-03-25T16:43:33.656Z,33.10
2019-03-25T16:46:02.546Z,29.50
2019-03-25T16:48:31.433Z,29.63
2019-03-25T16:51:00.720Z,29.63
2019-03-25T16:53:29.626Z,36.87
2019-03-25T16:55:59.537Z,36.67
2019-03-25T16:58:28.511Z,37.37
2019-03-25T17:00:57.422Z,27.93
2019-03-25T17:03:26.309Z,34.00
2019-03-25T17:05:55.302Z,29.33
2019-03-25T17:08:24.374Z,29.03
2019-03-25T17:10:53.390Z,36.20
2019-03-25T17:13:22.365Z,25.67
2019-03-25T17:15:51.377Z,34.27
2019-03-25T17:18:20.369Z,29.63
2019-03-25T17:20:49.337Z,29.97
2019-03-25T17:23:18.355Z,30.53
2019-03-25T17:25:53.064Z,27.83
2019-03-25T17:28:18.124Z,31.27
2019-03-25T17:30:47.080Z,27.80
2019-03-25T17:33:16.069Z,27.53
2019-03-25T17:35:45.170Z,31.70
2019-03-25T17:38:14.051Z,33.07
2019-03-25T17:40:42.941Z,30.17
2019-03-25T17:43:12.211Z,32.80
2019-03-25T17:45:41.417Z,36.70
2019-03-25T17:48:10.432Z,36.67
2019-03-25T17:50:39.397Z,29.63
2019-03-25T17:53:08.390Z,27.60
2019-03-25T17:55:37.318Z,30.23
2019-03-25T17:58:08.180Z,30.93
2019-03-25T18:00:49.013Z,28.37
2019-03-25T18:03:18.115Z,27.67
2019-03-25T18:05:47.101Z,37.30
2019-03-25T18:08:16.507Z,29.90
2019-03-25T18:10:45.398Z,30.30
2019-03-25T18:13:22.299Z,31.47
2019-03-25T18:15:44.781Z,33.27
2019-03-25T18:18:13.667Z,31.03
2019-03-25T18:20:42.510Z,26.63
2019-03-25T18:23:11.368Z,30.13
2019-03-25T18:25:40.268Z,28.10
2019-03-25T18:28:09.310Z,33.77
2019-03-25T18:30:38.255Z,29.03
2019-03-25T18:33:07.212Z,28.67
2019-03-25T18:35:36.062Z,26.03
2019-03-25T18:38:05.105Z,30.73
2019-03-25T18:40:33.989Z,28.30
2019-03-25T18:43:02.831Z,29.33
2019-03-25T18:45:31.765Z,29.80
2019-03-25T18:48:00.691Z,34.53
2019-03-25T18:50:29.559Z,30.03
2019-03-25T18:52:58.406Z,29.00
2019-03-25T18:55:27.459Z,30.33
2019-03-25T18:57:56.339Z,32.73
2019-03-25T19:00:36.059Z,29.57
2019-03-25T19:03:05.081Z,32.73
2019-03-25T19:05:33.929Z,32.07
2019-03-25T19:08:04.600Z,30.13
2019-03-25T19:10:33.642Z,29.60
2019-03-25T19:13:02.494Z,28.60
2019-03-25T19:15:31.355Z,26.80
2019-03-25T19:18:00.197Z,29.10
2019-03-25T19:20:29.048Z,29.80
2019-03-25T19:22:57.986Z,30.93
2019-03-25T19:25:26.801Z,34.07
2019-03-25T19:27:55.657Z,29.30
2019-03-25T19:30:24.668Z,29.03
2019-03-25T19:32:53.509Z,27.27
2019-03-25T19:35:22.339Z,29.17
2019-03-25T19:37:51.236Z,33.93
2019-03-25T19:40:20.079Z,31.30
2019-03-25T19:42:48.938Z,29.20
2019-03-25T19:45:18.093Z,30.97
2019-03-25T19:47:47.075Z,32.50
2019-03-25T19:50:16.672Z,28.70
2019-03-25T19:52:45.925Z,29.73
2019-03-25T19:55:15.269Z,26.00
2019-03-25T19:57:44.176Z,31.20
2019-03-25T20:00:13.586Z,28.43
2019-03-25T20:02:43.465Z,30.07
2019-03-25T20:05:12.871Z,30.43
2019-03-25T20:07:41.884Z,27.00
2019-03-25T20:10:19.708Z,29.80
2019-03-25T20:12:49.085Z,28.80
2019-03-25T20:15:17.965Z,29.40
2019-03-25T20:17:46.987Z,29.30
2019-03-25T20:20:15.834Z,26.40
2019-03-25T20:22:44.669Z,23.90
2019-03-25T20:25:13.539Z,28.87
2019-03-25T20:27:45.450Z,27.97
2019-03-25T20:30:14.669Z,25.57
2019-03-25T20:32:43.515Z,24.57
2019-03-25T20:35:12.539Z,27.43
2019-03-25T20:37:41.428Z,27.07
2019-03-25T20:40:10.498Z,23.30
2019-03-25T20:42:39.493Z,27.57
2019-03-25T20:45:09.174Z,27.63
2019-03-25T20:47:38.132Z,26.67
2019-03-25T20:50:07.942Z,25.93
2019-03-25T20:52:36.839Z,23.97
2019-03-25T20:55:10.754Z,29.63
2019-03-25T20:57:40.675Z,21.10
2019-03-25T21:00:10.736Z,20.67
2019-03-25T21:02:45.060Z,20.47
2019-03-25T21:05:10.515Z,16.20
2019-03-25T21:07:39.494Z,16.53
2019-03-25T21:10:08.724Z,20.87
2019-03-25T21:12:38.675Z,17.90
2019-03-25T21:15:09.189Z,15.27
2019-03-25T21:17:38.160Z,14.03
2019-03-25T21:20:08.892Z,13.60
2019-03-25T21:22:37.779Z,12.40
2019-03-25T21:25:07.616Z,8.97
2019-03-25T21:27:36.822Z,10.30
2019-03-25T21:30:07.793Z,8.83
2019-03-25T21:32:36.925Z,10.47
2019-03-25T21:35:07.700Z,9.47
2019-03-25T21:37:36.665Z,8.97
2019-03-25T21:40:07.255Z,9.47
2019-03-25T21:42:36.466Z,8.27
2019-03-25T21:45:08.196Z,8.87
2019-03-25T21:47:37.187Z,7.73
2019-03-25T21:50:09.789Z,8.70
2019-03-25T21:52:38.891Z,6.30
2019-03-25T21:55:08.410Z,7.40
2019-03-25T21:57:37.589Z,6.33
2019-03-25T22:00:07.437Z,5.20
2019-03-25T22:02:36.495Z,5.50
2019-03-25T22:05:07.485Z,5.10
2019-03-25T22:07:36.540Z,6.43
2019-03-25T22:10:06.114Z,7.07
2019-03-25T22:12:35.208Z,5.77
2019-03-25T22:15:06.786Z,4.10
2019-03-25T22:17:35.778Z,3.67
2019-03-25T22:20:08.060Z,4.60
2019-03-25T22:22:36.916Z,4.83
2019-03-25T22:25:07.862Z,3.13
2019-03-25T22:27:36.765Z,6.03
2019-03-25T22:30:09.952Z,5.13
2019-03-25T22:32:38.849Z,5.13
2019-03-25T22:35:08.153Z,7.70
2019-03-25T22:37:38.394Z,7.93
2019-03-25T22:40:08.134Z,6.40
2019-03-25T22:42:37.138Z,5.53
2019-03-25T22:45:06.864Z,5.50
2019-03-25T22:47:36.493Z,5.07
2019-03-25T22:50:10.328Z,5.43
2019-03-25T22:52:39.181Z,6.67
2019-03-25T22:55:08.177Z,5.97
2019-03-25T22:57:37.063Z,6.67
2019-03-25T23:00:07.900Z,6.87
2019-03-25T23:02:36.736Z,8.07
2019-03-25T23:05:06.571Z,10.70
2019-03-25T23:07:35.508Z,10.43
2019-03-25T23:10:05.772Z,9.37
2019-03-25T23:12:34.677Z,9.50
2019-03-25T23:15:03.715Z,10.37
2019-03-25T23:17:32.575Z,17.13
2019-03-25T23:20:01.447Z,19.80
2019-03-25T23:22:30.286Z,22.23
2019-03-25T23:24:59.137Z,19.77
2019-03-25T23:27:28.020Z,13.80
2019-03-25T23:29:56.847Z,13.03
2019-03-25T23:32:25.688Z,11.33
2019-03-25T23:34:54.600Z,7.63
2019-03-25T23:37:23.635Z,6.93
2019-03-25T23:39:52.454Z,9.97
2019-03-25T23:42:21.333Z,11.50
2019-03-25T23:44:50.181Z,10.07
2019-03-25T23:47:19.120Z,6.80
2019-03-25T23:49:48.078Z,3.87
2019-03-25T23:52:16.905Z,7.60
2019-03-25T23:54:45.741Z,9.10
2019-03-25T23:57:14.671Z,9.43
2019-03-25T23:59:43.508Z,4.67
